createdAt,value
2023-10-06T00:00:56.040Z,100.00
2023-10-06T00:05:13.176Z,100.00
2023-10-06T00:09:30.733Z,100.00
2023-10-06T00:13:54.127Z,100.00
2023-10-06T00:18:11.243Z,100.00
2023-10-06T00:22:28.473Z,100.00
2023-10-06T00:26:44.832Z,100.00
2023-10-06T00:30:59.965Z,100.00
2023-10-06T00:35:17.709Z,100.00
2023-10-06T00:39:32.710Z,100.00
2023-10-06T00:43:46.069Z,100.00
2023-10-06T00:47:58.774Z,100.00
2023-10-06T00:52:14.064Z,100.00
2023-10-06T00:56:30.692Z,100.00
2023-10-06T01:00:43.387Z,100.00
2023-10-06T01:04:55.981Z,100.00
2023-10-06T01:09:14.180Z,100.00
2023-10-06T01:13:29.729Z,100.00
2023-10-06T01:17:42.691Z,100.00
2023-10-06T01:21:57.400Z,100.00
2023-10-06T01:26:10.169Z,100.00
2023-10-06T01:30:23.094Z,100.00
2023-10-06T01:34:40.519Z,100.00
2023-10-06T01:38:54.187Z,100.00
2023-10-06T01:43:11.722Z,100.00
2023-10-06T01:47:24.284Z,100.00
2023-10-06T01:51:37.777Z,100.00
2023-10-06T01:55:54.651Z,100.00
2023-10-06T02:00:17.045Z,100.00
2023-10-06T02:04:36.038Z,100.00
2023-10-06T02:08:57.263Z,100.00
2023-10-06T02:13:09.742Z,100.00
2023-10-06T02:17:22.327Z,100.00
2023-10-06T02:21:52.965Z,100.00
2023-10-06T02:26:11.081Z,100.00
2023-10-06T02:30:35.735Z,100.00
2023-10-06T02:34:48.284Z,100.00
2023-10-06T02:39:07.420Z,100.00
2023-10-06T02:43:22.442Z,100.00
2023-10-06T02:47:35.023Z,100.00
2023-10-06T02:51:50.543Z,100.00
2023-10-06T02:56:10.631Z,100.00
2023-10-06T03:00:23.316Z,100.00
2023-10-06T03:04:38.214Z,100.00
2023-10-06T03:08:50.688Z,100.00
2023-10-06T03:13:05.447Z,100.00
2023-10-06T03:17:21.694Z,100.00
2023-10-06T03:21:34.708Z,100.00
2023-10-06T03:25:51.277Z,100.00
2023-10-06T03:30:13.551Z,100.00
2023-10-06T03:34:26.142Z,100.00
2023-10-06T03:38:39.568Z,100.00
2023-10-06T03:42:54.578Z,100.00
2023-10-06T03:47:10.160Z,100.00
2023-10-06T03:51:23.159Z,100.00
2023-10-06T03:55:47.634Z,100.00
2023-10-06T04:00:00.277Z,100.00
2023-10-06T04:04:17.239Z,100.00
2023-10-06T04:08:29.984Z,100.00
2023-10-06T04:12:42.481Z,100.00
2023-10-06T04:16:55.378Z,100.00
2023-10-06T04:21:13.140Z,100.00
2023-10-06T04:25:25.659Z,100.00
2023-10-06T04:29:40.193Z,100.00
2023-10-06T04:33:52.838Z,100.00
2023-10-06T04:38:08.015Z,100.00
2023-10-06T04:42:21.700Z,100.00
2023-10-06T04:46:37.044Z,100.00
2023-10-06T04:50:53.667Z,100.00
2023-10-06T04:55:12.214Z,100.00
2023-10-06T04:59:24.805Z,100.00
2023-10-06T05:03:46.701Z,100.00
2023-10-06T05:07:59.721Z,100.00
2023-10-06T05:12:13.115Z,100.00
2023-10-06T05:16:29.355Z,100.00
2023-10-06T05:20:41.936Z,100.00
2023-10-06T05:24:54.675Z,100.00
2023-10-06T05:29:07.564Z,100.00
2023-10-06T05:33:20.174Z,100.00
2023-10-06T05:37:34.172Z,100.00
2023-10-06T05:41:46.982Z,100.00
2023-10-06T05:45:59.508Z,100.00
2023-10-06T05:50:13.047Z,100.00
2023-10-06T05:54:25.513Z,100.00
2023-10-06T05:58:42.812Z,100.00
2023-10-06T06:03:00.168Z,100.00
2023-10-06T06:07:12.946Z,100.00
2023-10-06T06:11:26.673Z,100.00
2023-10-06T06:15:41.252Z,100.00
2023-10-06T06:20:04.770Z,100.00
2023-10-06T06:24:25.076Z,100.00
2023-10-06T06:28:38.424Z,100.00
2023-10-06T06:32:52.374Z,100.00
2023-10-06T06:37:04.928Z,100.00
2023-10-06T06:41:17.803Z,100.00
2023-10-06T06:45:38.190Z,100.00
2023-10-06T06:49:51.376Z,100.00
2023-10-06T06:54:04.100Z,100.00
2023-10-06T06:58:18.529Z,100.00
2023-10-06T07:02:31.130Z,100.00
2023-10-06T07:06:44.790Z,100.00
2023-10-06T07:10:58.236Z,100.00
2023-10-06T07:15:19.478Z,100.00
2023-10-06T07:19:31.972Z,100.00
2023-10-06T07:23:44.667Z,100.00
2023-10-06T07:28:00.555Z,100.00
2023-10-06T07:32:15.848Z,100.00
2023-10-06T07:36:31.070Z,100.00
2023-10-06T07:40:46.836Z,100.00
2023-10-06T07:44:59.829Z,100.00
2023-10-06T07:49:12.614Z,100.00
2023-10-06T07:53:25.834Z,100.00
2023-10-06T07:57:43.184Z,100.00
2023-10-06T08:01:55.796Z,100.00
2023-10-06T08:06:08.568Z,100.00
2023-10-06T08:10:21.609Z,100.00
2023-10-06T08:14:34.332Z,100.00
2023-10-06T08:18:49.945Z,100.00
2023-10-06T08:23:02.580Z,100.00
2023-10-06T08:27:15.144Z,100.00
2023-10-06T08:31:28.500Z,100.00
2023-10-06T08:35:42.277Z,100.00
2023-10-06T08:39:57.030Z,100.00
2023-10-06T08:44:11.117Z,100.00
2023-10-06T08:48:29.481Z,100.00
2023-10-06T08:52:43.147Z,98.39
2023-10-06T08:56:55.667Z,92.11
2023-10-06T09:01:08.866Z,88.00
2023-10-06T09:05:21.854Z,83.46
2023-10-06T09:09:35.024Z,76.34
2023-10-06T09:13:48.109Z,76.79
2023-10-06T09:18:01.402Z,74.67
2023-10-06T09:22:13.925Z,70.95
2023-10-06T09:26:33.651Z,74.31
2023-10-06T09:31:04.323Z,75.36
2023-10-06T09:35:21.458Z,70.89
2023-10-06T09:39:36.751Z,71.96
2023-10-06T09:43:51.025Z,70.65
2023-10-06T09:48:10.370Z,70.92
2023-10-06T09:52:26.113Z,67.77
2023-10-06T09:56:43.773Z,64.17
2023-10-06T10:00:57.522Z,64.20
2023-10-06T10:05:12.914Z,62.65
2023-10-06T10:09:26.953Z,64.20
2023-10-06T10:13:47.530Z,64.76
2023-10-06T10:18:11.546Z,63.52
2023-10-06T10:22:28.270Z,65.97
2023-10-06T10:26:41.843Z,60.91
2023-10-06T10:31:03.291Z,61.32
2023-10-06T10:35:18.739Z,58.42
2023-10-06T10:39:51.612Z,58.78
2023-10-06T10:44:24.706Z,56.45
2023-10-06T10:48:39.221Z,57.23
2023-10-06T10:52:55.687Z,57.06
2023-10-06T10:57:11.509Z,56.60
2023-10-06T11:01:40.531Z,56.85
2023-10-06T11:05:58.863Z,56.80
2023-10-06T11:10:14.859Z,57.36
2023-10-06T11:14:29.897Z,53.93
2023-10-06T11:18:43.152Z,51.93
2023-10-06T11:23:01.765Z,53.24
2023-10-06T11:27:23.603Z,54.32
2023-10-06T11:31:36.482Z,54.78
2023-10-06T11:35:49.086Z,55.75
2023-10-06T11:40:01.777Z,53.39
2023-10-06T11:44:14.292Z,50.75
2023-10-06T11:48:33.089Z,49.83
2023-10-06T11:52:46.127Z,48.96
2023-10-06T11:56:59.098Z,52.56
2023-10-06T12:01:30.529Z,49.41
2023-10-06T12:05:57.268Z,50.81
2023-10-06T12:10:10.780Z,49.22
2023-10-06T12:14:23.400Z,49.74
2023-10-06T12:18:37.375Z,51.24
2023-10-06T12:22:49.829Z,49.41
2023-10-06T12:27:02.368Z,49.21
2023-10-06T12:31:15.108Z,46.59
2023-10-06T12:35:30.919Z,46.39
2023-10-06T12:39:47.171Z,46.05
2023-10-06T12:44:06.803Z,47.92
2023-10-06T12:48:19.523Z,46.29
2023-10-06T12:52:33.094Z,45.13
2023-10-06T12:56:46.771Z,43.91
2023-10-06T13:00:59.304Z,44.46
2023-10-06T13:05:24.446Z,47.23
2023-10-06T13:09:38.516Z,48.19
2023-10-06T13:13:51.201Z,49.92
2023-10-06T13:18:03.835Z,47.33
2023-10-06T13:22:16.352Z,45.51
2023-10-06T13:26:40.537Z,44.69
2023-10-06T13:30:56.043Z,47.55
2023-10-06T13:35:13.793Z,44.20
2023-10-06T13:39:26.932Z,44.51
2023-10-06T13:43:39.524Z,44.13
2023-10-06T13:47:56.992Z,44.58
2023-10-06T13:52:09.613Z,42.55
2023-10-06T13:56:22.514Z,43.34
2023-10-06T14:00:37.366Z,42.81
2023-10-06T14:04:49.856Z,42.69
2023-10-06T14:09:02.398Z,38.61
2023-10-06T14:13:18.091Z,43.45
2023-10-06T14:17:34.366Z,39.48
2023-10-06T14:21:47.297Z,39.21
2023-10-06T14:26:02.576Z,39.76
2023-10-06T14:30:16.351Z,41.01
2023-10-06T14:34:47.528Z,42.92
2023-10-06T14:39:18.878Z,45.02
2023-10-06T14:43:49.760Z,46.23
2023-10-06T14:48:05.350Z,48.60
2023-10-06T14:52:18.369Z,50.36
2023-10-06T14:56:31.653Z,49.17
2023-10-06T15:00:44.278Z,50.54
2023-10-06T15:04:56.782Z,49.94
2023-10-06T15:09:19.689Z,51.89
2023-10-06T15:13:38.361Z,50.49
2023-10-06T15:18:09.173Z,52.06
2023-10-06T15:22:24.255Z,50.97
2023-10-06T15:26:36.865Z,52.03
2023-10-06T15:30:49.388Z,53.15
2023-10-06T15:35:02.637Z,52.04
2023-10-06T15:39:25.614Z,55.38
2023-10-06T15:43:43.842Z,58.93
2023-10-06T15:47:57.987Z,57.25
2023-10-06T15:52:10.556Z,56.99
2023-10-06T15:56:25.347Z,57.69
2023-10-06T16:00:41.914Z,62.61
2023-10-06T16:04:54.462Z,66.40
2023-10-06T16:09:18.166Z,69.17
2023-10-06T16:13:33.250Z,73.88
2023-10-06T16:17:46.208Z,78.30
2023-10-06T16:21:59.322Z,83.46
2023-10-06T16:26:13.639Z,88.61
2023-10-06T16:30:26.235Z,88.41
2023-10-06T16:34:40.074Z,92.11
2023-10-06T16:38:53.241Z,95.66
2023-10-06T16:43:11.193Z,98.43
2023-10-06T16:47:24.049Z,100.00
2023-10-06T16:51:36.802Z,100.00
2023-10-06T16:55:59.858Z,100.00
2023-10-06T17:00:14.574Z,100.00
2023-10-06T17:04:27.988Z,100.00
2023-10-06T17:08:41.854Z,100.00
2023-10-06T17:12:54.566Z,100.00
2023-10-06T17:17:07.167Z,100.00
2023-10-06T17:21:19.671Z,100.00
2023-10-06T17:25:33.483Z,100.00
2023-10-06T17:29:47.467Z,100.00
2023-10-06T17:34:00.530Z,100.00
2023-10-06T17:38:13.031Z,100.00
2023-10-06T17:42:25.569Z,100.00
2023-10-06T17:46:39.653Z,100.00
2023-10-06T17:50:52.628Z,100.00
2023-10-06T17:55:07.226Z,100.00
2023-10-06T17:59:20.124Z,100.00
2023-10-06T18:03:32.903Z,100.00
2023-10-06T18:07:46.656Z,100.00
2023-10-06T18:12:14.943Z,100.00
2023-10-06T18:16:31.741Z,100.00
2023-10-06T18:20:44.844Z,100.00
2023-10-06T18:24:57.401Z,100.00
2023-10-06T18:29:10.092Z,100.00
2023-10-06T18:33:22.865Z,100.00
2023-10-06T18:37:35.388Z,100.00
2023-10-06T18:41:49.142Z,100.00
2023-10-06T18:46:01.873Z,100.00
2023-10-06T18:50:20.624Z,100.00
2023-10-06T18:54:33.196Z,100.00
2023-10-06T18:58:48.017Z,100.00
2023-10-06T19:03:00.578Z,100.00
2023-10-06T19:07:14.819Z,100.00
2023-10-06T19:11:27.378Z,100.00
2023-10-06T19:15:43.850Z,100.00
2023-10-06T19:19:57.761Z,100.00
2023-10-06T19:24:11.226Z,100.00
2023-10-06T19:28:26.875Z,100.00
2023-10-06T19:32:41.289Z,100.00
2023-10-06T19:36:53.809Z,100.00
2023-10-06T19:41:16.406Z,100.00
2023-10-06T19:45:29.111Z,100.00
2023-10-06T19:49:41.756Z,100.00
2023-10-06T19:53:54.444Z,100.00
2023-10-06T19:58:09.534Z,100.00
2023-10-06T20:02:22.110Z,100.00
2023-10-06T20:06:40.068Z,100.00
2023-10-06T20:10:57.524Z,100.00
2023-10-06T20:15:12.995Z,100.00
2023-10-06T20:19:28.345Z,100.00
2023-10-06T20:23:42.067Z,100.00
2023-10-06T20:27:55.049Z,100.00
2023-10-06T20:32:09.506Z,100.00
2023-10-06T20:36:22.580Z,100.00
2023-10-06T20:40:36.233Z,100.00
2023-10-06T20:44:48.812Z,100.00
2023-10-06T20:49:02.634Z,100.00
2023-10-06T20:53:15.128Z,100.00
2023-10-06T20:57:29.381Z,100.00
2023-10-06T21:01:43.934Z,100.00
2023-10-06T21:05:58.745Z,100.00
2023-10-06T21:10:13.320Z,100.00
2023-10-06T21:14:25.873Z,100.00
2023-10-06T21:18:39.125Z,100.00
2023-10-06T21:22:52.013Z,100.00
2023-10-06T21:27:05.688Z,100.00
2023-10-06T21:31:18.298Z,100.00
2023-10-06T21:35:32.538Z,100.00
2023-10-06T21:39:45.585Z,100.00
2023-10-06T21:43:58.157Z,100.00
2023-10-06T21:48:10.736Z,100.00
2023-10-06T21:52:24.050Z,100.00
2023-10-06T21:56:36.916Z,100.00
2023-10-06T22:00:55.976Z,100.00
2023-10-06T22:05:09.591Z,100.00
2023-10-06T22:09:24.848Z,100.00
2023-10-06T22:13:37.457Z,100.00
2023-10-06T22:17:50.041Z,100.00
2023-10-06T22:22:03.367Z,100.00
2023-10-06T22:26:16.371Z,100.00
2023-10-06T22:30:29.276Z,100.00
2023-10-06T22:34:42.563Z,100.00
2023-10-06T22:38:56.302Z,100.00
2023-10-06T22:43:09.629Z,100.00
2023-10-06T22:47:22.131Z,100.00
2023-10-06T22:51:34.607Z,100.00
2023-10-06T22:55:47.249Z,100.00
2023-10-06T23:00:00.991Z,100.00
2023-10-06T23:04:13.604Z,100.00
2023-10-06T23:08:26.589Z,100.00
2023-10-06T23:12:39.932Z,100.00
2023-10-06T23:16:52.717Z,100.00
2023-10-06T23:21:07.758Z,100.00
2023-10-06T23:25:24.825Z,100.00
2023-10-06T23:29:37.748Z,100.00
2023-10-06T23:33:50.644Z,100.00
2023-10-06T23:38:08.403Z,100.00
2023-10-06T23:42:25.892Z,100.00
2023-10-06T23:46:40.417Z,100.00
2023-10-06T23:51:00.641Z,100.00
2023-10-06T23:55:16.540Z,100.00
2023-10-06T23:59:30.273Z,100.00
